createdAt,value
2022-09-09T00:00:16.623Z,18.70
2022-09-09T00:02:51.937Z,18.60
2022-09-09T00:05:30.129Z,18.60
2022-09-09T00:08:04.804Z,18.60
2022-09-09T00:10:36.011Z,18.60
2022-09-09T00:13:18.031Z,18.60
2022-09-09T00:15:55.440Z,18.60
2022-09-09T00:18:30.175Z,18.60
2022-09-09T00:21:07.092Z,18.60
2022-09-09T00:23:38.641Z,18.60
2022-09-09T00:26:15.243Z,18.60
2022-09-09T00:28:48.035Z,18.60
2022-09-09T00:31:23.160Z,18.60
2022-09-09T00:33:52.511Z,18.60
2022-09-09T00:36:26.511Z,18.60
2022-09-09T00:38:59.102Z,18.60
2022-09-09T00:41:41.663Z,18.60
2022-09-09T00:44:22.677Z,18.70
2022-09-09T00:47:02.089Z,18.70
2022-09-09T00:49:41.238Z,18.60
2022-09-09T00:52:25.920Z,18.70
2022-09-09T00:55:00.575Z,18.70
2022-09-09T00:57:32.111Z,18.70
2022-09-09T01:03:31.786Z,18.70
2022-09-09T01:06:05.179Z,18.80
2022-09-09T01:09:00.356Z,18.80
2022-09-09T01:11:35.985Z,18.70
2022-09-09T01:14:17.266Z,18.70
2022-09-09T01:16:46.564Z,18.70
2022-09-09T01:19:26.480Z,18.70
2022-09-09T01:22:05.709Z,18.70
2022-09-09T01:24:44.409Z,18.70
2022-09-09T01:27:21.651Z,18.70
2022-09-09T01:29:50.550Z,18.70
2022-09-09T01:32:40.969Z,18.60
2022-09-09T01:35:15.059Z,18.60
2022-09-09T01:37:44.165Z,18.60
2022-09-09T01:40:12.418Z,18.60
2022-09-09T01:42:42.510Z,18.60
2022-09-09T01:45:11.622Z,18.60
2022-09-09T01:47:39.928Z,18.60
2022-09-09T01:50:22.032Z,18.50
2022-09-09T01:52:54.800Z,18.50
2022-09-09T01:55:31.928Z,18.40
2022-09-09T01:58:17.462Z,18.40
2022-09-09T02:00:58.922Z,18.40
2022-09-09T02:03:30.656Z,18.40
2022-09-09T02:06:18.048Z,18.40
2022-09-09T02:08:50.387Z,18.40
2022-09-09T02:11:21.420Z,18.40
2022-09-09T02:14:03.568Z,18.30
2022-09-09T02:16:39.723Z,18.30
2022-09-09T02:19:13.701Z,18.30
2022-09-09T02:21:59.121Z,18.30
2022-09-09T02:24:31.064Z,18.30
2022-09-09T02:27:14.034Z,18.30
2022-09-09T02:29:48.072Z,18.30
2022-09-09T02:32:20.792Z,18.30
2022-09-09T02:34:52.261Z,18.30
2022-09-09T02:37:23.594Z,18.30
2022-09-09T02:39:55.046Z,18.30
2022-09-09T02:42:24.966Z,18.30
2022-09-09T02:44:57.149Z,18.30
2022-09-09T02:47:32.268Z,18.30
2022-09-09T02:50:13.720Z,18.30
2022-09-09T02:53:02.150Z,18.30
2022-09-09T02:55:40.524Z,18.30
2022-09-09T02:58:14.221Z,18.30
2022-09-09T03:00:46.269Z,18.20
2022-09-09T03:03:16.531Z,18.20
2022-09-09T03:05:44.824Z,18.20
2022-09-09T03:08:14.981Z,18.30
2022-09-09T03:10:44.359Z,18.20
2022-09-09T03:13:16.216Z,18.20
2022-09-09T03:15:46.761Z,18.20
2022-09-09T03:18:18.189Z,18.10
2022-09-09T03:20:50.596Z,18.10
2022-09-09T03:23:19.685Z,18.00
2022-09-09T03:25:51.191Z,18.00
2022-09-09T03:28:24.166Z,18.00
2022-09-09T03:30:54.186Z,18.10
2022-09-09T03:33:23.087Z,18.00
2022-09-09T03:35:51.605Z,18.00
2022-09-09T03:38:21.837Z,18.00
2022-09-09T03:40:52.179Z,18.00
2022-09-09T03:43:20.831Z,17.90
2022-09-09T03:45:50.323Z,17.90
2022-09-09T03:48:20.728Z,18.00
2022-09-09T03:50:50.478Z,17.90
2022-09-09T03:53:20.566Z,17.90
2022-09-09T03:55:50.993Z,17.90
2022-09-09T03:58:21.367Z,17.90
2022-09-09T04:00:56.750Z,17.80
2022-09-09T04:03:28.266Z,17.80
2022-09-09T04:05:59.271Z,17.80
2022-09-09T04:08:29.426Z,17.80
2022-09-09T04:10:58.878Z,17.70
2022-09-09T04:13:29.061Z,17.70
2022-09-09T04:16:00.842Z,17.70
2022-09-09T04:18:30.899Z,17.70
2022-09-09T04:20:59.537Z,17.70
2022-09-09T04:23:31.089Z,17.70
2022-09-09T04:26:01.845Z,17.70
2022-09-09T04:28:32.914Z,17.70
2022-09-09T04:31:07.532Z,17.70
2022-09-09T04:33:40.353Z,17.70
2022-09-09T04:36:11.344Z,17.70
2022-09-09T04:38:40.307Z,17.70
2022-09-09T04:41:11.968Z,17.60
2022-09-09T04:43:42.293Z,17.60
2022-09-09T04:46:11.204Z,17.60
2022-09-09T04:48:41.144Z,17.60
2022-09-09T04:51:14.011Z,17.60
2022-09-09T04:53:42.490Z,17.60
2022-09-09T04:56:13.194Z,17.60
2022-09-09T04:58:46.377Z,17.60
2022-09-09T05:01:18.210Z,17.60
2022-09-09T05:03:48.969Z,17.60
2022-09-09T05:06:24.155Z,17.60
2022-09-09T05:08:56.902Z,17.60
2022-09-09T05:11:29.633Z,17.50
2022-09-09T05:14:02.607Z,17.50
2022-09-09T05:16:32.620Z,17.50
2022-09-09T05:19:04.197Z,17.50
2022-09-09T05:25:05.454Z,17.50
2022-09-09T05:27:35.889Z,17.50
2022-09-09T05:30:05.485Z,17.50
2022-09-09T05:32:34.585Z,17.50
2022-09-09T05:35:06.236Z,17.50
2022-09-09T05:37:34.476Z,17.50
2022-09-09T05:40:03.028Z,17.50
2022-09-09T05:42:33.456Z,17.50
2022-09-09T05:45:02.045Z,17.50
2022-09-09T05:47:30.535Z,17.50
2022-09-09T05:49:59.818Z,17.50
2022-09-09T05:52:29.688Z,17.50
2022-09-09T05:55:00.271Z,17.50
2022-09-09T05:57:28.531Z,17.50
2022-09-09T05:59:57.118Z,17.50
2022-09-09T06:02:25.967Z,17.40
2022-09-09T06:05:00.518Z,17.40
2022-09-09T06:07:31.718Z,17.40
2022-09-09T06:10:00.154Z,17.40
2022-09-09T06:12:28.430Z,17.40
2022-09-09T06:14:56.564Z,17.50
2022-09-09T06:17:25.226Z,17.50
2022-09-09T06:19:54.586Z,17.60
2022-09-09T06:22:22.973Z,17.60
2022-09-09T06:24:52.905Z,17.60
2022-09-09T06:27:21.977Z,17.70
2022-09-09T06:29:50.143Z,17.70
2022-09-09T06:32:19.072Z,17.80
2022-09-09T06:34:50.172Z,17.80
2022-09-09T06:37:18.275Z,17.90
2022-09-09T06:39:50.544Z,17.80
2022-09-09T06:42:20.613Z,17.80
2022-09-09T06:44:51.666Z,17.90
2022-09-09T06:47:28.157Z,17.90
2022-09-09T06:49:59.368Z,17.90
2022-09-09T06:52:27.643Z,17.90
2022-09-09T06:54:59.360Z,17.90
2022-09-09T06:57:37.616Z,17.90
2022-09-09T07:00:15.902Z,17.90
2022-09-09T07:02:45.363Z,18.00
2022-09-09T07:05:16.314Z,18.10
2022-09-09T07:07:45.769Z,18.10
2022-09-09T07:10:16.164Z,18.10
2022-09-09T07:12:47.199Z,18.10
2022-09-09T07:15:16.109Z,18.10
2022-09-09T07:17:47.509Z,18.10
2022-09-09T07:20:17.234Z,18.10
2022-09-09T07:22:45.939Z,18.10
2022-09-09T07:25:15.204Z,18.00
2022-09-09T07:27:43.865Z,18.00
2022-09-09T07:30:20.912Z,18.00
2022-09-09T07:32:53.628Z,18.00
2022-09-09T07:35:22.016Z,18.00
2022-09-09T07:37:51.149Z,18.00
2022-09-09T07:40:22.810Z,18.00
2022-09-09T07:42:51.536Z,17.90
2022-09-09T07:45:21.200Z,18.00
2022-09-09T07:47:49.928Z,18.10
2022-09-09T07:50:19.957Z,18.00
2022-09-09T07:52:48.231Z,18.10
2022-09-09T07:55:17.293Z,18.30
2022-09-09T07:57:45.825Z,18.40
2022-09-09T08:00:16.563Z,18.40
2022-09-09T08:02:52.651Z,18.40
2022-09-09T08:05:21.546Z,18.50
2022-09-09T08:07:50.773Z,18.50
2022-09-09T08:10:19.486Z,18.50
2022-09-09T08:13:01.771Z,18.60
2022-09-09T08:15:39.033Z,18.60
2022-09-09T08:18:08.660Z,18.70
2022-09-09T08:20:39.179Z,18.80
2022-09-09T08:23:08.710Z,18.80
2022-09-09T08:25:37.522Z,18.70
2022-09-09T08:28:05.774Z,18.70
2022-09-09T08:30:34.565Z,18.80
2022-09-09T08:33:02.851Z,18.80
2022-09-09T08:35:33.816Z,18.70
2022-09-09T08:38:06.490Z,18.50
2022-09-09T08:40:45.145Z,18.40
2022-09-09T08:43:14.127Z,18.50
2022-09-09T08:45:52.569Z,18.60
2022-09-09T08:48:38.852Z,18.70
2022-09-09T08:51:09.553Z,18.80
2022-09-09T08:53:44.508Z,18.60
2022-09-09T08:56:16.381Z,18.40
2022-09-09T08:58:50.742Z,18.50
2022-09-09T09:01:46.019Z,18.60
2022-09-09T09:04:35.799Z,18.70
2022-09-09T09:07:15.457Z,18.70
2022-09-09T09:09:59.776Z,18.80
2022-09-09T09:12:34.592Z,18.70
2022-09-09T09:15:03.395Z,18.50
2022-09-09T09:17:39.826Z,18.10
2022-09-09T09:20:15.982Z,17.60
2022-09-09T09:22:51.634Z,17.30
2022-09-09T09:25:22.898Z,17.10
2022-09-09T09:28:01.760Z,17.10
2022-09-09T09:30:37.319Z,17.00
2022-09-09T09:33:17.249Z,17.00
2022-09-09T09:35:45.536Z,17.20
2022-09-09T09:41:12.211Z,17.50
2022-09-09T09:43:43.336Z,17.70
2022-09-09T09:46:24.554Z,17.80
2022-09-09T09:49:00.847Z,18.00
2022-09-09T09:51:33.145Z,18.00
2022-09-09T09:54:16.697Z,18.30
2022-09-09T09:56:49.582Z,18.50
2022-09-09T09:59:39.779Z,18.80
2022-09-09T10:02:24.225Z,18.90
2022-09-09T10:05:06.214Z,19.10
2022-09-09T10:07:38.319Z,19.20
2022-09-09T10:10:15.401Z,19.30
2022-09-09T10:12:53.782Z,19.30
2022-09-09T10:15:36.621Z,19.50
2022-09-09T10:18:20.120Z,19.70
2022-09-09T10:20:56.578Z,19.90
2022-09-09T10:23:41.683Z,20.00
2022-09-09T10:26:34.255Z,20.10
2022-09-09T10:29:24.959Z,20.10
2022-09-09T10:32:08.580Z,19.90
2022-09-09T10:34:56.607Z,19.60
2022-09-09T10:37:43.055Z,19.50
2022-09-09T10:40:27.060Z,19.40
2022-09-09T10:43:00.434Z,19.40
2022-09-09T10:45:35.660Z,19.10
2022-09-09T10:48:33.263Z,18.60
2022-09-09T10:51:20.502Z,18.00
2022-09-09T10:54:02.466Z,17.60
2022-09-09T10:56:31.071Z,17.30
2022-09-09T10:59:04.278Z,17.10
2022-09-09T11:01:38.339Z,17.00
2022-09-09T11:04:15.810Z,17.00
2022-09-09T11:06:52.148Z,17.00
2022-09-09T11:09:25.031Z,17.20
2022-09-09T11:11:55.588Z,17.20
2022-09-09T11:14:35.357Z,17.10
2022-09-09T11:17:11.924Z,17.00
2022-09-09T11:19:42.562Z,17.00
2022-09-09T11:22:19.903Z,17.00
2022-09-09T11:24:52.407Z,17.00
2022-09-09T11:27:26.021Z,17.00
2022-09-09T11:30:51.166Z,17.10
2022-09-09T11:33:59.684Z,17.40
2022-09-09T11:36:55.244Z,18.10
2022-09-09T11:39:53.867Z,18.20
2022-09-09T11:42:24.631Z,18.00
2022-09-09T11:44:54.192Z,18.00
2022-09-09T11:47:31.591Z,18.10
2022-09-09T11:50:11.493Z,18.10
2022-09-09T11:52:46.725Z,18.20
2022-09-09T11:55:28.497Z,18.20
2022-09-09T11:58:01.018Z,18.30
2022-09-09T12:00:37.979Z,18.40
2022-09-09T12:03:10.043Z,18.50
2022-09-09T12:05:41.975Z,18.70
2022-09-09T12:08:13.776Z,18.80
2022-09-09T12:10:42.785Z,18.80
2022-09-09T12:13:18.984Z,18.90
2022-09-09T12:15:52.772Z,18.90
2022-09-09T12:18:27.416Z,19.00
2022-09-09T12:21:04.812Z,19.20
2022-09-09T12:23:45.251Z,19.50
2022-09-09T12:26:28.276Z,19.70
2022-09-09T12:29:13.010Z,19.70
2022-09-09T12:31:48.090Z,19.70
2022-09-09T12:34:20.877Z,19.60
2022-09-09T12:36:56.187Z,19.60
2022-09-09T12:39:33.015Z,19.60
2022-09-09T12:42:01.432Z,19.50
2022-09-09T12:44:30.079Z,19.50
2022-09-09T12:47:02.557Z,19.60
2022-09-09T12:49:37.431Z,19.60
2022-09-09T12:52:09.017Z,19.70
2022-09-09T12:54:38.859Z,19.70
2022-09-09T12:57:13.023Z,19.60
2022-09-09T12:59:44.130Z,19.60
2022-09-09T13:02:20.951Z,19.70
2022-09-09T13:04:52.517Z,19.70
2022-09-09T13:07:21.108Z,19.70
2022-09-09T13:09:51.836Z,19.70
2022-09-09T13:12:23.466Z,19.70
2022-09-09T13:14:54.920Z,19.70
2022-09-09T13:17:25.138Z,19.50
2022-09-09T13:19:56.627Z,19.30
2022-09-09T13:22:31.751Z,19.10
2022-09-09T13:25:06.311Z,19.00
2022-09-09T13:27:39.651Z,18.90
2022-09-09T13:30:30.255Z,18.80
2022-09-09T13:33:23.545Z,18.70
2022-09-09T13:35:56.999Z,18.80
2022-09-09T13:38:27.725Z,18.60
2022-09-09T13:41:03.166Z,18.40
2022-09-09T13:43:33.208Z,18.40
2022-09-09T13:46:03.685Z,18.30
2022-09-09T13:48:32.843Z,18.30
2022-09-09T13:51:06.264Z,18.30
2022-09-09T13:53:34.504Z,18.50
2022-09-09T13:56:03.487Z,18.80
2022-09-09T13:58:31.730Z,19.10
2022-09-09T14:01:00.631Z,19.20
2022-09-09T14:03:29.017Z,19.60
2022-09-09T14:05:58.087Z,19.70
2022-09-09T14:08:37.960Z,20.00
2022-09-09T14:11:07.778Z,19.90
2022-09-09T14:13:38.464Z,19.10
2022-09-09T14:16:06.980Z,19.30
2022-09-09T14:18:35.983Z,19.70
2022-09-09T14:21:05.778Z,20.40
2022-09-09T14:23:35.319Z,20.60
2022-09-09T14:26:04.874Z,20.50
2022-09-09T14:31:22.761Z,20.30
2022-09-09T14:33:51.920Z,20.10
2022-09-09T14:36:21.005Z,20.00
2022-09-09T14:38:51.048Z,19.90
2022-09-09T14:41:21.590Z,19.90
2022-09-09T14:43:50.496Z,19.80
2022-09-09T14:46:20.444Z,19.70
2022-09-09T14:48:49.785Z,19.20
2022-09-09T14:51:20.454Z,19.20
2022-09-09T14:53:53.846Z,19.30
2022-09-09T14:56:24.044Z,19.20
2022-09-09T14:58:53.336Z,19.10
2022-09-09T15:01:23.276Z,19.20
2022-09-09T15:03:53.117Z,19.30
2022-09-09T15:06:22.664Z,19.30
2022-09-09T15:08:54.062Z,19.30
2022-09-09T15:11:25.204Z,19.40
2022-09-09T15:13:54.256Z,19.40
2022-09-09T15:16:24.588Z,19.40
2022-09-09T15:18:55.304Z,19.40
2022-09-09T15:21:25.062Z,19.40
2022-09-09T15:23:56.399Z,19.40
2022-09-09T15:26:25.165Z,19.40
2022-09-09T15:28:53.493Z,19.50
2022-09-09T15:31:23.588Z,19.50
2022-09-09T15:33:52.870Z,19.30
2022-09-09T15:36:24.308Z,19.20
2022-09-09T15:38:53.609Z,19.20
2022-09-09T15:41:24.702Z,19.30
2022-09-09T15:43:54.966Z,19.40
2022-09-09T15:46:30.380Z,19.50
2022-09-09T15:49:00.624Z,19.60
2022-09-09T15:51:44.947Z,19.60
2022-09-09T15:54:17.937Z,19.70
2022-09-09T15:56:49.554Z,19.90
2022-09-09T15:59:18.111Z,20.00
2022-09-09T16:01:46.734Z,20.10
2022-09-09T16:04:16.601Z,19.90
2022-09-09T16:06:45.388Z,19.90
2022-09-09T16:09:14.062Z,19.90
2022-09-09T16:11:42.338Z,19.70
2022-09-09T16:14:12.170Z,19.70
2022-09-09T16:16:41.966Z,19.70
2022-09-09T16:19:13.467Z,19.70
2022-09-09T16:21:43.537Z,19.70
2022-09-09T16:24:14.354Z,19.60
2022-09-09T16:26:46.645Z,19.50
2022-09-09T16:29:18.223Z,19.50
2022-09-09T16:31:48.053Z,19.50
2022-09-09T16:34:18.649Z,19.50
2022-09-09T16:36:47.541Z,19.50
2022-09-09T16:39:17.838Z,19.30
2022-09-09T16:41:48.324Z,19.30
2022-09-09T16:44:20.458Z,19.30
2022-09-09T16:46:56.694Z,19.30
2022-09-09T16:49:28.436Z,19.20
2022-09-09T16:52:00.566Z,19.10
2022-09-09T16:54:30.115Z,19.10
2022-09-09T16:56:58.890Z,19.00
2022-09-09T16:59:28.530Z,19.00
2022-09-09T17:01:57.287Z,18.90
2022-09-09T17:04:30.844Z,18.80
2022-09-09T17:07:01.443Z,18.80
2022-09-09T17:09:32.275Z,18.80
2022-09-09T17:12:00.857Z,18.80
2022-09-09T17:14:32.268Z,18.70
2022-09-09T17:17:14.031Z,18.60
2022-09-09T17:19:51.180Z,18.50
2022-09-09T17:22:19.383Z,18.50
2022-09-09T17:24:48.084Z,18.50
2022-09-09T17:27:16.346Z,18.40
2022-09-09T17:29:46.474Z,18.40
2022-09-09T17:32:14.719Z,18.30
2022-09-09T17:34:59.166Z,18.30
2022-09-09T17:37:27.972Z,18.10
2022-09-09T17:39:56.653Z,17.80
2022-09-09T17:42:24.872Z,17.50
2022-09-09T17:44:54.828Z,17.10
2022-09-09T17:47:23.236Z,17.00
2022-09-09T17:49:51.690Z,16.90
2022-09-09T17:52:19.994Z,17.00
2022-09-09T17:54:49.350Z,17.10
2022-09-09T17:57:20.019Z,17.10
2022-09-09T17:59:48.352Z,17.00
2022-09-09T18:02:18.134Z,17.00
2022-09-09T18:04:47.327Z,17.00
2022-09-09T18:07:15.699Z,17.00
2022-09-09T18:09:44.426Z,16.90
2022-09-09T18:12:12.906Z,16.90
2022-09-09T18:14:41.733Z,17.00
2022-09-09T18:17:11.218Z,17.00
2022-09-09T18:19:40.745Z,17.00
2022-09-09T18:22:09.177Z,17.00
2022-09-09T18:24:38.362Z,17.00
2022-09-09T18:27:06.871Z,17.10
2022-09-09T18:29:35.175Z,17.10
2022-09-09T18:32:04.558Z,17.10
2022-09-09T18:34:36.124Z,17.10
2022-09-09T18:37:07.861Z,17.10
2022-09-09T18:39:36.107Z,17.10
2022-09-09T18:42:05.056Z,17.10
2022-09-09T18:44:35.527Z,17.10
2022-09-09T18:47:04.420Z,17.10
2022-09-09T18:49:33.186Z,17.10
2022-09-09T18:52:02.892Z,17.00
2022-09-09T18:54:34.313Z,17.00
2022-09-09T18:57:03.807Z,16.80
2022-09-09T18:59:32.578Z,16.60
2022-09-09T19:02:01.423Z,16.50
2022-09-09T19:04:30.102Z,16.40
2022-09-09T19:06:58.956Z,16.30
2022-09-09T19:09:31.035Z,16.30
2022-09-09T19:12:02.942Z,16.30
2022-09-09T19:14:31.768Z,16.20
2022-09-09T19:17:00.692Z,16.20
2022-09-09T19:19:32.923Z,16.20
2022-09-09T19:22:02.185Z,16.20
2022-09-09T19:24:32.782Z,16.20
2022-09-09T19:27:10.911Z,16.30
2022-09-09T19:29:42.719Z,16.30
2022-09-09T19:33:13.060Z,16.30
2022-09-09T19:35:01.778Z,16.30
2022-09-09T19:37:30.256Z,16.30
2022-09-09T19:39:58.544Z,16.30
2022-09-09T19:42:30.544Z,16.20
2022-09-09T19:44:58.851Z,16.10
2022-09-09T19:47:26.998Z,15.90
2022-09-09T19:49:55.343Z,15.80
2022-09-09T19:52:27.170Z,15.70
2022-09-09T19:54:55.941Z,15.70
2022-09-09T19:57:24.829Z,15.60
2022-09-09T19:59:56.139Z,15.60
2022-09-09T20:02:25.211Z,15.60
2022-09-09T20:04:54.346Z,15.60
2022-09-09T20:07:23.894Z,15.50
2022-09-09T20:09:54.778Z,15.50
2022-09-09T20:12:23.319Z,15.50
2022-09-09T20:14:51.918Z,15.50
2022-09-09T20:17:21.697Z,15.50
2022-09-09T20:19:51.052Z,15.50
2022-09-09T20:22:19.722Z,15.50
2022-09-09T20:24:48.324Z,15.50
2022-09-09T20:27:16.688Z,15.50
2022-09-09T20:29:45.788Z,15.50
2022-09-09T20:32:14.543Z,15.50
2022-09-09T20:34:47.855Z,15.50
2022-09-09T20:37:16.888Z,15.50
2022-09-09T20:39:46.259Z,15.50
2022-09-09T20:42:15.336Z,15.60
2022-09-09T20:44:43.556Z,15.60
2022-09-09T20:47:11.730Z,15.60
2022-09-09T20:49:39.838Z,15.60
2022-09-09T20:52:11.055Z,15.60
2022-09-09T20:54:40.721Z,15.60
2022-09-09T20:57:08.941Z,15.60
2022-09-09T20:59:37.427Z,15.60
2022-09-09T21:02:06.382Z,15.70
2022-09-09T21:04:35.120Z,15.70
2022-09-09T21:07:04.298Z,15.70
2022-09-09T21:09:34.388Z,15.70
2022-09-09T21:12:02.769Z,15.70
2022-09-09T21:14:32.877Z,15.70
2022-09-09T21:17:00.987Z,15.70
2022-09-09T21:19:30.981Z,15.70
2022-09-09T21:22:03.603Z,15.70
2022-09-09T21:24:37.415Z,15.70
2022-09-09T21:27:06.297Z,15.70
2022-09-09T21:29:34.405Z,15.80
2022-09-09T21:32:05.612Z,15.80
2022-09-09T21:34:35.780Z,15.80
2022-09-09T21:37:04.572Z,15.80
2022-09-09T21:39:36.731Z,15.80
2022-09-09T21:42:05.365Z,15.80
2022-09-09T21:44:33.516Z,15.70
2022-09-09T21:47:01.724Z,15.70
2022-09-09T21:49:29.818Z,15.80
2022-09-09T21:51:58.312Z,15.70
2022-09-09T21:54:28.456Z,15.70
2022-09-09T21:56:58.305Z,15.80
2022-09-09T21:59:28.301Z,15.80
2022-09-09T22:01:57.104Z,15.90
2022-09-09T22:04:26.358Z,15.80
2022-09-09T22:06:54.850Z,15.80
2022-09-09T22:09:25.498Z,15.80
2022-09-09T22:11:55.525Z,15.80
2022-09-09T22:14:29.188Z,15.80
2022-09-09T22:16:57.534Z,15.80
2022-09-09T22:19:25.888Z,15.80
2022-09-09T22:21:55.798Z,15.80
2022-09-09T22:24:23.989Z,15.90
2022-09-09T22:26:55.934Z,15.80
2022-09-09T22:29:24.186Z,15.80
2022-09-09T22:31:56.222Z,15.80
2022-09-09T22:34:24.702Z,15.80
2022-09-09T22:36:52.836Z,15.80
2022-09-09T22:39:21.093Z,15.80
2022-09-09T22:41:49.690Z,15.80
2022-09-09T22:44:17.933Z,15.80
2022-09-09T22:46:46.301Z,15.80
2022-09-09T22:49:15.888Z,15.70
2022-09-09T22:51:44.502Z,15.70
2022-09-09T22:54:13.025Z,15.70
2022-09-09T22:56:41.870Z,15.80
2022-09-09T22:59:12.279Z,15.70
2022-09-09T23:01:40.763Z,15.70
2022-09-09T23:04:09.331Z,15.70
2022-09-09T23:06:39.923Z,15.70
2022-09-09T23:09:08.713Z,15.80
2022-09-09T23:11:38.224Z,15.80
2022-09-09T23:14:11.451Z,15.80
2022-09-09T23:16:43.818Z,15.80
2022-09-09T23:19:15.859Z,15.80
2022-09-09T23:21:47.118Z,15.80
2022-09-09T23:24:17.620Z,15.80
2022-09-09T23:26:47.279Z,15.80
2022-09-09T23:29:15.879Z,15.80
2022-09-09T23:31:45.858Z,15.70
2022-09-09T23:34:15.523Z,15.90
2022-09-09T23:36:45.684Z,15.90
2022-09-09T23:39:14.446Z,15.90
2022-09-09T23:41:43.357Z,15.80
2022-09-09T23:44:12.707Z,15.80
2022-09-09T23:46:41.016Z,15.80
2022-09-09T23:49:09.762Z,15.80
2022-09-09T23:51:38.822Z,15.80
2022-09-09T23:54:09.844Z,15.90
2022-09-09T23:56:42.834Z,15.90
2022-09-09T23:59:11.279Z,15.90
